createdAt,value
2018-07-13T00:00:11.206Z,15.90
2018-07-13T00:01:11.447Z,14.80
2018-07-13T00:02:11.690Z,16.00
2018-07-13T00:03:11.932Z,15.40
2018-07-13T00:04:12.178Z,15.50
2018-07-13T00:05:12.417Z,17.30
2018-07-13T00:06:12.660Z,16.50
2018-07-13T00:07:12.904Z,16.10
2018-07-13T00:08:13.145Z,17.00
2018-07-13T00:09:13.386Z,17.10
2018-07-13T00:10:13.631Z,18.50
2018-07-13T00:11:13.873Z,17.70
2018-07-13T00:12:14.118Z,18.10
2018-07-13T00:13:14.356Z,17.40
2018-07-13T00:14:14.600Z,19.00
2018-07-13T00:15:14.845Z,19.30
2018-07-13T00:16:15.084Z,18.10
2018-07-13T00:17:15.327Z,17.70
2018-07-13T00:18:15.568Z,17.80
2018-07-13T00:19:15.811Z,17.80
2018-07-13T00:20:16.051Z,18.30
2018-07-13T00:21:16.295Z,20.00
2018-07-13T00:22:16.539Z,21.60
2018-07-13T00:23:16.782Z,18.70
2018-07-13T00:24:17.024Z,17.60
2018-07-13T00:25:17.267Z,19.00
2018-07-13T00:26:17.510Z,18.60
2018-07-13T00:27:17.754Z,19.10
2018-07-13T00:28:17.996Z,19.30
2018-07-13T00:29:18.242Z,18.70
2018-07-13T00:30:18.482Z,19.20
2018-07-13T00:31:18.729Z,20.20
2018-07-13T00:32:18.976Z,20.70
2018-07-13T00:33:19.219Z,21.10
2018-07-13T00:34:19.458Z,20.40
2018-07-13T00:35:19.706Z,19.50
2018-07-13T00:36:19.950Z,17.60
2018-07-13T00:37:20.197Z,17.50
2018-07-13T00:38:20.445Z,17.90
2018-07-13T00:39:20.688Z,19.60
2018-07-13T00:40:20.932Z,19.30
2018-07-13T00:41:21.179Z,22.20
2018-07-13T00:42:21.424Z,21.60
2018-07-13T00:43:21.673Z,21.00
2018-07-13T00:44:21.917Z,21.30
2018-07-13T00:45:22.162Z,21.80
2018-07-13T00:46:22.408Z,22.20
2018-07-13T00:47:22.653Z,21.90
2018-07-13T00:48:22.897Z,22.40
2018-07-13T00:49:23.139Z,22.50
2018-07-13T00:50:23.382Z,21.10
2018-07-13T00:51:23.628Z,21.20
2018-07-13T00:52:23.869Z,22.20
2018-07-13T00:53:24.114Z,21.40
2018-07-13T00:54:24.358Z,22.10
2018-07-13T00:55:24.602Z,21.70
2018-07-13T00:56:24.843Z,22.40
2018-07-13T00:57:25.089Z,21.20
2018-07-13T00:58:25.333Z,22.70
2018-07-13T00:59:25.593Z,26.40
2018-07-13T01:00:25.819Z,21.90
2018-07-13T01:01:26.061Z,22.10
2018-07-13T01:02:26.305Z,24.40
2018-07-13T01:03:26.549Z,23.90
2018-07-13T01:04:26.793Z,23.40
2018-07-13T01:05:27.036Z,24.20
2018-07-13T01:06:27.277Z,24.10
2018-07-13T01:07:27.520Z,24.40
2018-07-13T01:08:27.762Z,23.80
2018-07-13T01:09:28.006Z,25.00
2018-07-13T01:10:28.248Z,22.90
2018-07-13T01:11:28.492Z,24.10
2018-07-13T01:12:28.732Z,24.10
2018-07-13T01:13:28.975Z,24.40
2018-07-13T01:14:29.217Z,22.50
2018-07-13T01:15:29.459Z,21.10
2018-07-13T01:16:29.704Z,19.60
2018-07-13T01:17:29.944Z,22.60
2018-07-13T01:18:30.186Z,22.50
2018-07-13T01:19:30.429Z,23.90
2018-07-13T01:20:30.675Z,23.50
2018-07-13T01:21:30.914Z,24.10
2018-07-13T01:22:31.156Z,22.50
2018-07-13T01:23:31.397Z,22.20
2018-07-13T01:24:31.639Z,22.10
2018-07-13T01:25:31.880Z,22.30
2018-07-13T01:26:32.123Z,21.70
2018-07-13T01:27:32.366Z,23.20
2018-07-13T01:28:32.611Z,22.40
2018-07-13T01:29:32.855Z,23.10
2018-07-13T01:30:33.095Z,23.50
2018-07-13T01:31:33.334Z,23.10
2018-07-13T01:32:33.578Z,23.60
2018-07-13T01:33:33.825Z,23.50
2018-07-13T01:34:34.066Z,22.90
2018-07-13T01:35:58.249Z,22.60
2018-07-13T01:39:38.315Z,23.90
2018-07-13T01:40:38.556Z,24.70
2018-07-13T01:41:38.797Z,23.80
2018-07-13T01:42:39.038Z,24.50
2018-07-13T01:43:39.280Z,22.90
2018-07-13T01:44:39.525Z,24.10
2018-07-13T01:45:39.763Z,24.10
2018-07-13T01:46:40.004Z,24.30
2018-07-13T01:47:40.244Z,24.90
2018-07-13T01:48:40.486Z,26.30
2018-07-13T01:49:40.726Z,26.30
2018-07-13T01:50:40.968Z,26.10
2018-07-13T01:51:41.207Z,26.20
2018-07-13T01:52:41.447Z,26.50
2018-07-13T01:53:41.688Z,29.20
2018-07-13T01:54:41.932Z,27.50
2018-07-13T01:55:42.273Z,26.80
2018-07-13T01:56:42.416Z,26.70
2018-07-13T01:57:42.656Z,29.40
2018-07-13T01:58:42.900Z,27.40
2018-07-13T01:59:43.144Z,28.40
2018-07-13T02:00:43.385Z,28.80
2018-07-13T02:01:43.626Z,30.10
2018-07-13T02:02:43.868Z,30.50
2018-07-13T02:03:44.113Z,31.00
2018-07-13T02:04:44.350Z,28.00
2018-07-13T02:05:44.590Z,29.20
2018-07-13T02:06:44.832Z,29.20
2018-07-13T02:07:45.074Z,29.30
2018-07-13T02:08:45.315Z,30.40
2018-07-13T02:09:45.558Z,30.40
2018-07-13T02:10:45.800Z,29.30
2018-07-13T02:11:46.043Z,29.10
2018-07-13T02:12:46.284Z,28.40
2018-07-13T02:13:46.526Z,29.60
2018-07-13T02:14:46.767Z,32.40
2018-07-13T02:15:47.006Z,32.60
2018-07-13T02:16:47.247Z,33.60
2018-07-13T02:17:47.514Z,34.80
2018-07-13T02:18:47.731Z,32.50
2018-07-13T02:19:47.973Z,34.40
2018-07-13T02:20:48.214Z,34.80
2018-07-13T02:21:48.454Z,33.80
2018-07-13T02:22:48.695Z,34.40
2018-07-13T02:23:48.934Z,33.30
2018-07-13T02:24:49.179Z,33.00
2018-07-13T02:25:49.418Z,32.70
2018-07-13T02:26:49.663Z,30.60
2018-07-13T02:27:49.903Z,32.00
2018-07-13T02:28:50.144Z,30.30
2018-07-13T02:29:50.384Z,29.40
2018-07-13T02:30:50.628Z,32.90
2018-07-13T02:31:50.868Z,33.70
2018-07-13T02:32:51.112Z,32.70
2018-07-13T02:33:51.376Z,34.80
2018-07-13T02:34:51.596Z,32.30
2018-07-13T02:35:51.839Z,32.40
2018-07-13T02:36:52.080Z,29.40
2018-07-13T02:37:52.322Z,30.50
2018-07-13T02:38:52.609Z,26.70
2018-07-13T02:39:52.804Z,28.50
2018-07-13T02:40:53.045Z,27.40
2018-07-13T02:41:53.287Z,29.70
2018-07-13T02:42:53.543Z,28.80
2018-07-13T02:43:53.768Z,29.90
2018-07-13T02:44:54.006Z,29.30
2018-07-13T02:45:54.245Z,31.00
2018-07-13T02:46:54.487Z,32.20
2018-07-13T02:47:54.728Z,32.40
2018-07-13T02:48:54.969Z,33.90
2018-07-13T02:49:55.216Z,33.10
2018-07-13T02:50:55.452Z,34.00
2018-07-13T02:51:55.696Z,33.70
2018-07-13T02:52:55.933Z,35.80
2018-07-13T02:53:56.175Z,34.90
2018-07-13T02:54:56.423Z,35.70
2018-07-13T02:55:56.657Z,36.80
2018-07-13T02:56:56.899Z,35.90
2018-07-13T02:57:57.141Z,32.40
2018-07-13T02:58:57.380Z,37.10
2018-07-13T02:59:57.622Z,38.10
2018-07-13T03:00:57.862Z,38.10
2018-07-13T03:01:58.105Z,35.80
2018-07-13T03:02:58.345Z,37.80
2018-07-13T03:03:58.587Z,35.30
2018-07-13T03:04:58.828Z,34.00
2018-07-13T03:05:59.071Z,36.50
2018-07-13T03:06:59.311Z,39.10
2018-07-13T03:07:59.550Z,39.40
2018-07-13T03:08:59.802Z,40.60
2018-07-13T03:10:00.049Z,38.10
2018-07-13T03:11:00.275Z,41.60
2018-07-13T03:12:00.518Z,45.60
2018-07-13T03:13:00.761Z,45.60
2018-07-13T03:14:01.001Z,44.30
2018-07-13T03:15:01.240Z,41.00
2018-07-13T03:16:01.484Z,42.30
2018-07-13T03:17:01.726Z,40.40
2018-07-13T03:18:01.967Z,41.70
2018-07-13T03:19:02.207Z,40.30
2018-07-13T03:20:02.449Z,41.80
2018-07-13T03:21:02.691Z,40.40
2018-07-13T03:22:02.967Z,41.90
2018-07-13T03:23:03.171Z,40.80
2018-07-13T03:24:03.415Z,39.60
2018-07-13T03:25:03.657Z,38.10
2018-07-13T03:26:03.902Z,38.30
2018-07-13T03:27:04.140Z,40.50
2018-07-13T03:28:04.389Z,43.10
2018-07-13T03:29:04.625Z,45.80
2018-07-13T03:30:04.866Z,43.70
2018-07-13T03:31:05.105Z,45.40
2018-07-13T03:32:05.349Z,48.00
2018-07-13T03:33:05.589Z,45.40
2018-07-13T03:34:05.829Z,45.10
2018-07-13T03:35:06.070Z,41.40
2018-07-13T03:36:06.309Z,43.30
2018-07-13T03:37:06.549Z,45.60
2018-07-13T03:38:06.790Z,47.80
2018-07-13T03:39:07.033Z,48.20
2018-07-13T03:40:07.273Z,49.80
2018-07-13T03:41:07.517Z,47.80
2018-07-13T03:42:07.755Z,47.20
2018-07-13T03:43:07.994Z,45.90
2018-07-13T03:44:08.232Z,46.30
2018-07-13T03:45:08.476Z,47.60
2018-07-13T03:46:08.717Z,50.60
2018-07-13T03:47:08.958Z,48.90
2018-07-13T03:48:09.199Z,48.00
2018-07-13T03:49:09.440Z,45.40
2018-07-13T03:50:09.682Z,44.20
2018-07-13T03:51:09.921Z,44.20
2018-07-13T03:52:10.163Z,42.50
2018-07-13T03:53:10.408Z,38.10
2018-07-13T03:54:10.663Z,40.10
2018-07-13T03:55:10.890Z,40.20
2018-07-13T03:56:11.130Z,40.00
2018-07-13T03:57:11.371Z,43.00
2018-07-13T03:58:11.612Z,44.70
2018-07-13T03:59:11.856Z,41.70
2018-07-13T04:00:12.095Z,41.80
2018-07-13T04:01:12.336Z,39.80
2018-07-13T04:02:12.582Z,39.70
2018-07-13T04:03:12.823Z,39.90
2018-07-13T04:04:13.063Z,41.20
2018-07-13T04:05:13.304Z,40.40
2018-07-13T04:06:13.547Z,41.70
2018-07-13T04:07:13.791Z,40.50
2018-07-13T04:08:14.032Z,40.70
2018-07-13T04:09:14.274Z,38.30
2018-07-13T04:10:14.515Z,37.90
2018-07-13T04:11:14.759Z,41.50
2018-07-13T04:12:15.000Z,43.30
2018-07-13T04:13:15.242Z,41.00
2018-07-13T04:14:15.485Z,41.30
2018-07-13T04:15:15.726Z,42.20
2018-07-13T04:16:15.968Z,40.10
2018-07-13T04:17:16.210Z,43.00
2018-07-13T04:18:16.455Z,43.40
2018-07-13T04:19:16.702Z,45.50
2018-07-13T04:20:16.935Z,44.10
2018-07-13T04:21:17.177Z,42.10
2018-07-13T04:22:17.418Z,45.20
2018-07-13T04:23:17.662Z,43.20
2018-07-13T04:24:17.905Z,43.10
2018-07-13T04:25:18.143Z,45.70
2018-07-13T04:26:18.388Z,42.90
2018-07-13T04:27:18.631Z,41.50
2018-07-13T04:28:18.873Z,40.80
2018-07-13T04:29:19.121Z,45.70
2018-07-13T04:30:19.363Z,43.50
2018-07-13T04:31:19.608Z,43.60
2018-07-13T04:32:19.850Z,41.60
2018-07-13T04:33:20.093Z,39.40
2018-07-13T04:34:20.417Z,38.40
2018-07-13T04:35:20.577Z,37.30
2018-07-13T04:36:20.819Z,37.30
2018-07-13T04:37:21.060Z,37.30
2018-07-13T04:38:21.303Z,33.90
2018-07-13T04:39:21.547Z,33.90
2018-07-13T04:40:21.785Z,34.00
2018-07-13T04:41:22.027Z,36.50
2018-07-13T04:42:22.271Z,33.10
2018-07-13T04:43:22.514Z,33.40
2018-07-13T04:44:22.753Z,31.20
2018-07-13T04:45:22.997Z,30.40
2018-07-13T04:46:23.237Z,30.60
2018-07-13T04:47:23.478Z,30.50
2018-07-13T04:48:23.720Z,30.80
2018-07-13T04:49:23.963Z,28.30
2018-07-13T04:50:24.206Z,27.90
2018-07-13T04:51:24.448Z,27.50
2018-07-13T04:52:24.690Z,28.00
2018-07-13T04:53:24.930Z,26.40
2018-07-13T04:54:25.174Z,27.40
2018-07-13T04:55:25.414Z,27.70
2018-07-13T04:56:25.657Z,25.20
2018-07-13T04:57:25.900Z,24.70
2018-07-13T04:58:26.145Z,25.50
2018-07-13T04:59:26.388Z,24.90
2018-07-13T05:00:26.632Z,23.40
2018-07-13T05:01:26.874Z,22.70
2018-07-13T05:02:27.118Z,23.70
2018-07-13T05:03:27.362Z,23.60
2018-07-13T05:04:27.605Z,24.30
2018-07-13T05:05:27.848Z,22.70
2018-07-13T05:06:28.090Z,22.40
2018-07-13T05:07:28.336Z,22.50
2018-07-13T05:08:28.574Z,24.60
2018-07-13T05:09:28.817Z,22.30
2018-07-13T05:10:29.059Z,22.30
2018-07-13T05:11:29.303Z,22.80
2018-07-13T05:12:29.547Z,22.70
2018-07-13T05:13:29.790Z,23.90
2018-07-13T05:14:30.033Z,26.40
2018-07-13T05:15:30.277Z,23.50
2018-07-13T05:16:30.518Z,26.20
2018-07-13T05:17:30.764Z,23.40
2018-07-13T05:18:31.009Z,25.60
2018-07-13T05:19:31.250Z,26.30
2018-07-13T05:20:31.493Z,23.10
2018-07-13T05:21:31.737Z,22.20
2018-07-13T05:22:31.978Z,22.10
2018-07-13T05:23:32.221Z,23.40
2018-07-13T05:24:32.465Z,25.60
2018-07-13T05:25:32.708Z,24.90
2018-07-13T05:26:32.950Z,22.30
2018-07-13T05:27:33.192Z,21.40
2018-07-13T05:28:33.437Z,21.50
2018-07-13T05:29:33.682Z,21.10
2018-07-13T05:30:33.926Z,22.90
2018-07-13T05:31:34.171Z,22.70
2018-07-13T05:32:34.414Z,20.80
2018-07-13T05:33:34.658Z,23.10
2018-07-13T05:34:34.900Z,20.40
2018-07-13T05:35:35.143Z,20.50
2018-07-13T05:36:35.384Z,19.90
2018-07-13T05:37:35.631Z,20.60
2018-07-13T05:38:35.873Z,20.00
2018-07-13T05:39:36.113Z,19.80
2018-07-13T05:40:36.357Z,19.60
2018-07-13T05:41:36.601Z,20.10
2018-07-13T05:42:36.844Z,21.30
2018-07-13T05:43:37.088Z,19.10
2018-07-13T05:44:37.332Z,19.70
2018-07-13T05:45:37.576Z,20.10
2018-07-13T05:46:37.818Z,24.10
2018-07-13T05:47:38.061Z,18.30
2018-07-13T05:48:38.307Z,19.30
2018-07-13T05:49:38.561Z,22.40
2018-07-13T05:50:38.800Z,20.90
2018-07-13T05:51:39.034Z,21.10
2018-07-13T05:52:39.278Z,20.90
2018-07-13T05:53:39.521Z,18.90
2018-07-13T05:54:39.767Z,17.90
2018-07-13T05:55:40.010Z,23.00
2018-07-13T05:56:40.256Z,18.60
2018-07-13T05:57:40.498Z,18.80
2018-07-13T05:58:40.744Z,18.30
2018-07-13T05:59:40.994Z,17.30
2018-07-13T06:00:41.230Z,19.10
2018-07-13T06:01:41.474Z,18.00
2018-07-13T06:02:41.730Z,16.90
2018-07-13T06:03:41.963Z,17.90
2018-07-13T06:04:42.208Z,16.70
2018-07-13T06:05:42.453Z,17.60
2018-07-13T06:06:42.698Z,15.80
2018-07-13T06:07:42.944Z,15.90
2018-07-13T06:08:43.189Z,15.20
2018-07-13T06:09:43.440Z,19.00
2018-07-13T06:10:43.677Z,14.60
2018-07-13T06:11:43.922Z,18.20
2018-07-13T06:12:44.166Z,15.00
2018-07-13T06:13:44.410Z,16.60
2018-07-13T06:14:44.660Z,15.80
2018-07-13T06:15:44.900Z,14.70
2018-07-13T06:16:45.142Z,14.80
2018-07-13T06:17:45.391Z,14.60
2018-07-13T06:18:45.630Z,14.00
2018-07-13T06:19:45.875Z,14.30
2018-07-13T06:20:46.118Z,14.50
2018-07-13T06:21:46.364Z,14.90
2018-07-13T06:22:46.607Z,15.10
2018-07-13T06:23:46.852Z,13.70
2018-07-13T06:24:47.096Z,13.90
2018-07-13T06:25:47.342Z,12.90
2018-07-13T06:26:47.588Z,13.30
2018-07-13T06:27:47.834Z,14.90
2018-07-13T06:28:48.080Z,15.70
2018-07-13T06:29:48.327Z,15.80
2018-07-13T06:30:48.573Z,13.30
2018-07-13T06:31:48.818Z,14.00
2018-07-13T06:32:49.063Z,13.40
2018-07-13T06:33:49.309Z,15.20
2018-07-13T06:34:49.556Z,13.80
2018-07-13T06:35:49.800Z,13.00
2018-07-13T06:36:50.045Z,15.40
2018-07-13T06:37:50.290Z,12.90
2018-07-13T06:38:50.535Z,12.50
2018-07-13T06:39:50.788Z,13.50
2018-07-13T06:40:51.027Z,13.50
2018-07-13T06:41:51.272Z,12.00
2018-07-13T06:42:51.517Z,13.10
2018-07-13T06:43:51.762Z,13.30
2018-07-13T06:44:52.053Z,16.30
2018-07-13T06:45:52.257Z,13.30
2018-07-13T06:46:52.502Z,14.40
2018-07-13T06:47:52.748Z,13.70
2018-07-13T06:48:52.994Z,12.60
2018-07-13T06:49:53.240Z,11.40
2018-07-13T06:50:53.491Z,12.50
2018-07-13T06:51:53.734Z,13.90
2018-07-13T06:52:53.978Z,10.50
2018-07-13T06:53:54.224Z,11.20
2018-07-13T06:54:54.513Z,12.80
2018-07-13T06:55:54.717Z,10.80
2018-07-13T06:56:55.005Z,13.10
2018-07-13T06:57:55.211Z,16.30
2018-07-13T06:58:55.457Z,10.90
2018-07-13T06:59:55.704Z,10.60
2018-07-13T07:00:55.951Z,12.10
2018-07-13T07:01:56.196Z,11.40
2018-07-13T07:02:56.445Z,11.90
2018-07-13T07:03:56.689Z,10.20
2018-07-13T07:04:56.935Z,10.00
2018-07-13T07:05:57.181Z,12.10
2018-07-13T07:06:57.427Z,10.60
2018-07-13T07:07:57.673Z,11.80
2018-07-13T07:08:57.920Z,10.90
2018-07-13T07:09:58.168Z,13.60
2018-07-13T07:10:58.413Z,9.70
2018-07-13T07:11:58.662Z,12.10
2018-07-13T07:12:58.908Z,10.50
2018-07-13T07:13:59.154Z,7.30
2018-07-13T07:14:59.400Z,9.30
2018-07-13T07:15:59.645Z,9.50
2018-07-13T07:16:59.893Z,8.20
2018-07-13T07:18:00.136Z,8.60
2018-07-13T07:19:00.386Z,6.40
2018-07-13T07:20:00.628Z,7.70
2018-07-13T07:21:00.873Z,6.00
2018-07-13T07:22:01.119Z,6.20
2018-07-13T07:23:01.365Z,6.10
2018-07-13T07:24:01.612Z,5.50
2018-07-13T07:25:01.858Z,7.30
2018-07-13T07:26:02.110Z,4.80
2018-07-13T07:27:02.355Z,5.00
2018-07-13T07:28:02.600Z,4.40
2018-07-13T07:29:02.848Z,6.20
2018-07-13T07:30:03.096Z,5.50
2018-07-13T07:31:03.342Z,4.50
2018-07-13T07:32:03.589Z,8.50
2018-07-13T07:33:03.837Z,5.10
2018-07-13T07:34:04.085Z,6.00
2018-07-13T07:35:04.334Z,5.10
2018-07-13T07:36:04.581Z,5.50
2018-07-13T07:37:04.829Z,5.60
2018-07-13T07:38:05.076Z,4.50
2018-07-13T07:39:05.324Z,6.60
2018-07-13T07:40:05.574Z,5.50
2018-07-13T07:41:05.830Z,4.40
2018-07-13T07:42:06.074Z,3.90
2018-07-13T07:43:06.323Z,2.50
2018-07-13T07:44:06.579Z,4.00
2018-07-13T07:45:06.827Z,4.50
2018-07-13T07:46:07.075Z,6.60
2018-07-13T07:47:07.328Z,5.40
2018-07-13T07:48:07.577Z,4.60
2018-07-13T07:49:07.922Z,2.80
2018-07-13T07:50:08.092Z,2.40
2018-07-13T07:51:08.326Z,3.20
2018-07-13T07:52:08.577Z,4.00
2018-07-13T07:53:08.830Z,4.20
2018-07-13T07:54:09.079Z,2.30
2018-07-13T07:55:09.330Z,3.50
2018-07-13T07:56:09.581Z,4.00
2018-07-13T07:57:09.832Z,3.00
2018-07-13T07:58:10.084Z,3.90
2018-07-13T07:59:10.336Z,3.60
2018-07-13T08:00:10.588Z,3.90
2018-07-13T08:01:10.840Z,4.50
2018-07-13T08:02:11.091Z,6.10
2018-07-13T08:03:11.344Z,2.20
2018-07-13T08:04:11.621Z,2.80
2018-07-13T08:05:11.853Z,6.50
2018-07-13T08:06:12.133Z,2.60
2018-07-13T08:07:12.819Z,6.60
2018-07-13T08:08:12.608Z,3.30
2018-07-13T08:09:12.862Z,3.10
2018-07-13T08:10:13.114Z,2.70
2018-07-13T08:11:13.366Z,4.50
2018-07-13T08:12:13.620Z,3.00
2018-07-13T08:13:13.874Z,4.10
2018-07-13T08:14:14.370Z,4.30
2018-07-13T08:15:14.380Z,5.70
2018-07-13T08:16:14.634Z,2.50
2018-07-13T08:17:14.886Z,4.50
2018-07-13T08:18:15.137Z,2.20
2018-07-13T08:19:15.392Z,4.40
2018-07-13T08:20:15.646Z,2.60
2018-07-13T08:21:15.899Z,2.40
2018-07-13T08:22:16.153Z,3.10
2018-07-13T08:23:16.407Z,3.00
2018-07-13T08:24:16.660Z,4.60
2018-07-13T08:25:16.915Z,3.20
2018-07-13T08:26:17.170Z,2.20
2018-07-13T08:27:17.425Z,1.50
2018-07-13T08:28:17.679Z,2.90
2018-07-13T08:29:17.933Z,3.00
2018-07-13T08:30:18.187Z,2.40
2018-07-13T08:31:18.442Z,3.30
2018-07-13T08:32:18.696Z,4.20
2018-07-13T08:33:18.951Z,2.40
2018-07-13T08:34:19.206Z,1.90
2018-07-13T08:35:19.458Z,2.90
2018-07-13T08:36:19.716Z,3.70
2018-07-13T08:37:19.971Z,3.90
2018-07-13T08:38:20.227Z,2.80
2018-07-13T08:39:20.481Z,2.70
2018-07-13T08:40:20.736Z,3.60
2018-07-13T08:41:20.990Z,2.70
2018-07-13T08:42:21.244Z,2.10
2018-07-13T08:43:21.499Z,1.80
2018-07-13T08:44:21.756Z,3.30
2018-07-13T08:45:22.011Z,2.50
2018-07-13T08:46:22.268Z,1.90
2018-07-13T08:47:22.522Z,3.20
2018-07-13T08:48:22.776Z,2.50
2018-07-13T08:49:23.032Z,3.00
2018-07-13T08:50:23.344Z,2.20
2018-07-13T08:51:23.546Z,2.40
2018-07-13T08:52:23.798Z,2.70
2018-07-13T08:53:24.052Z,2.80
2018-07-13T08:54:24.307Z,3.10
2018-07-13T08:55:24.563Z,3.90
2018-07-13T08:56:24.819Z,1.80
2018-07-13T08:57:25.073Z,2.70
2018-07-13T08:58:25.328Z,2.80
2018-07-13T08:59:25.583Z,2.40
2018-07-13T09:00:25.837Z,1.90
2018-07-13T09:01:26.093Z,1.90
2018-07-13T09:02:26.348Z,3.40
2018-07-13T09:03:26.604Z,2.20
2018-07-13T09:04:26.911Z,8.60
2018-07-13T09:05:27.119Z,3.50
2018-07-13T09:06:27.381Z,2.50
2018-07-13T09:07:27.644Z,2.00
2018-07-13T09:08:27.880Z,2.20
2018-07-13T09:09:28.137Z,2.50
2018-07-13T09:10:28.391Z,2.10
2018-07-13T09:11:28.646Z,1.70
2018-07-13T09:12:28.903Z,4.10
2018-07-13T09:13:29.157Z,2.10
2018-07-13T09:14:29.413Z,5.00
2018-07-13T09:15:29.668Z,2.40
2018-07-13T09:16:29.960Z,2.50
2018-07-13T09:17:30.180Z,2.20
2018-07-13T09:18:30.436Z,2.20
2018-07-13T09:19:30.692Z,2.00
2018-07-13T09:20:30.947Z,2.10
2018-07-13T09:21:31.203Z,1.80
2018-07-13T09:22:31.459Z,2.60
2018-07-13T09:23:31.716Z,2.90
2018-07-13T09:24:31.971Z,3.30
2018-07-13T09:25:32.230Z,2.30
2018-07-13T09:26:32.487Z,1.80
2018-07-13T09:27:32.740Z,2.70
2018-07-13T09:28:32.997Z,3.20
2018-07-13T09:29:33.253Z,3.40
2018-07-13T09:30:33.508Z,2.30
2018-07-13T09:31:33.764Z,3.20
2018-07-13T09:32:34.021Z,4.00
2018-07-13T09:33:34.276Z,2.80
2018-07-13T09:34:34.532Z,3.50
2018-07-13T09:35:34.789Z,3.80
2018-07-13T09:36:35.046Z,2.20
2018-07-13T09:37:35.300Z,1.50
2018-07-13T09:38:35.555Z,2.30
2018-07-13T09:39:35.813Z,2.00
2018-07-13T09:40:36.069Z,5.70
2018-07-13T09:41:36.325Z,2.40
2018-07-13T09:42:36.579Z,2.40
2018-07-13T09:43:36.843Z,1.70
2018-07-13T09:44:37.093Z,0.80
2018-07-13T09:45:37.350Z,1.30
2018-07-13T09:46:37.663Z,1.80
2018-07-13T09:47:37.868Z,1.10
2018-07-13T09:48:38.126Z,6.90
2018-07-13T09:49:38.381Z,0.90
2018-07-13T09:50:38.652Z,1.00
2018-07-13T09:51:38.895Z,1.10
2018-07-13T09:52:39.151Z,1.50
2018-07-13T09:53:39.480Z,1.20
2018-07-13T09:54:39.664Z,2.20
2018-07-13T09:55:39.925Z,1.50
2018-07-13T09:56:40.182Z,1.40
2018-07-13T09:57:40.441Z,2.40
2018-07-13T09:58:40.701Z,1.90
2018-07-13T09:59:40.958Z,1.10
2018-07-13T10:00:41.317Z,2.00
2018-07-13T10:01:41.480Z,0.70
2018-07-13T10:02:41.739Z,3.60
2018-07-13T10:03:41.999Z,1.50
2018-07-13T10:04:42.271Z,0.80
2018-07-13T10:05:42.516Z,1.70
2018-07-13T10:06:42.776Z,1.20
2018-07-13T10:07:43.038Z,2.00
2018-07-13T10:08:43.298Z,3.10
2018-07-13T10:09:43.561Z,0.90
2018-07-13T10:10:43.821Z,1.20
2018-07-13T10:11:44.083Z,2.90
2018-07-13T10:12:44.344Z,1.00
2018-07-13T10:13:44.608Z,1.40
2018-07-13T10:14:44.867Z,2.80
2018-07-13T10:15:45.128Z,1.90
2018-07-13T10:16:45.387Z,1.00
2018-07-13T10:17:45.649Z,0.90
2018-07-13T10:18:45.913Z,1.10
2018-07-13T10:19:46.169Z,1.60
2018-07-13T10:20:46.437Z,1.80
2018-07-13T10:21:46.688Z,1.00
2018-07-13T10:22:46.948Z,2.00
2018-07-13T10:23:47.207Z,1.70
2018-07-13T10:24:47.470Z,1.60
2018-07-13T10:25:47.728Z,1.90
2018-07-13T10:26:47.986Z,1.40
2018-07-13T10:27:48.245Z,0.90
2018-07-13T10:28:48.501Z,2.10
2018-07-13T10:29:48.760Z,3.90
2018-07-13T10:30:49.018Z,3.10
2018-07-13T10:31:49.315Z,1.80
2018-07-13T10:32:49.530Z,0.90
2018-07-13T10:33:49.789Z,2.70
2018-07-13T10:34:50.046Z,0.80
2018-07-13T10:35:50.304Z,2.00
2018-07-13T10:36:50.562Z,0.80
2018-07-13T10:37:50.820Z,1.90
2018-07-13T10:38:51.079Z,2.70
2018-07-13T10:39:51.338Z,0.70
2018-07-13T10:40:51.596Z,0.90
2018-07-13T10:41:51.854Z,0.90
2018-07-13T10:42:52.111Z,0.90
2018-07-13T10:43:52.371Z,1.50
2018-07-13T10:44:52.631Z,1.10
2018-07-13T10:45:52.974Z,1.10
2018-07-13T10:46:53.149Z,0.80
2018-07-13T10:47:53.407Z,1.90
2018-07-13T10:48:53.666Z,1.40
2018-07-13T10:49:53.923Z,2.20
2018-07-13T10:50:54.184Z,2.90
2018-07-13T10:51:54.441Z,1.00
2018-07-13T10:52:54.700Z,1.60
2018-07-13T10:53:54.957Z,0.70
2018-07-13T10:54:55.218Z,1.10
2018-07-13T10:55:55.477Z,0.90
2018-07-13T10:56:55.761Z,1.40
2018-07-13T10:57:55.997Z,1.80
2018-07-13T10:58:56.255Z,1.00
2018-07-13T10:59:56.512Z,1.60
2018-07-13T11:00:56.774Z,1.30
2018-07-13T11:01:57.028Z,2.70
2018-07-13T11:02:57.308Z,1.20
2018-07-13T11:03:57.544Z,1.20
2018-07-13T11:04:57.800Z,1.70
2018-07-13T11:05:58.060Z,2.20
2018-07-13T11:06:58.319Z,1.10
2018-07-13T11:07:58.596Z,1.50
2018-07-13T11:08:58.833Z,1.20
2018-07-13T11:09:59.091Z,1.70
2018-07-13T11:10:59.349Z,4.90
2018-07-13T11:11:59.606Z,2.80
2018-07-13T11:12:59.864Z,2.30
2018-07-13T11:14:00.134Z,2.80
2018-07-13T11:15:00.376Z,1.20
2018-07-13T11:16:00.632Z,0.90
2018-07-13T11:17:00.888Z,1.90
2018-07-13T11:18:01.146Z,2.70
2018-07-13T11:19:01.401Z,0.90
2018-07-13T11:20:01.658Z,1.00
2018-07-13T11:21:01.914Z,1.10
2018-07-13T11:22:02.171Z,1.10
2018-07-13T11:23:02.429Z,0.70
2018-07-13T11:24:02.684Z,3.60
2018-07-13T11:25:02.940Z,1.20
2018-07-13T11:26:03.198Z,1.90
2018-07-13T11:27:03.454Z,0.90
2018-07-13T11:28:03.711Z,1.50
2018-07-13T11:29:03.967Z,0.90
2018-07-13T11:30:04.230Z,1.00
2018-07-13T11:31:04.484Z,1.30
2018-07-13T11:32:04.738Z,3.00
2018-07-13T11:33:04.996Z,0.80
2018-07-13T11:34:05.253Z,0.80
2018-07-13T11:35:05.509Z,1.10
2018-07-13T11:36:05.767Z,1.00
2018-07-13T11:37:06.291Z,1.10
2018-07-13T11:38:06.281Z,0.70
2018-07-13T11:39:06.537Z,0.80
2018-07-13T11:40:06.794Z,1.30
2018-07-13T11:41:07.052Z,2.20
2018-07-13T11:42:07.313Z,2.50
2018-07-13T11:43:07.567Z,1.50
2018-07-13T11:44:07.856Z,1.60
2018-07-13T11:45:08.081Z,0.80
2018-07-13T11:46:08.341Z,1.30
2018-07-13T11:47:08.598Z,1.20
2018-07-13T11:48:08.853Z,3.30
2018-07-13T11:49:09.109Z,0.70
2018-07-13T11:50:09.366Z,1.70
2018-07-13T11:51:09.623Z,0.60
2018-07-13T11:52:09.930Z,1.80
2018-07-13T11:53:10.138Z,0.80
2018-07-13T11:54:10.396Z,1.80
2018-07-13T11:55:10.653Z,1.70
2018-07-13T11:56:10.910Z,2.60
2018-07-13T11:57:11.168Z,0.80
2018-07-13T11:58:11.427Z,0.70
2018-07-13T11:59:11.682Z,0.90
2018-07-13T12:00:11.943Z,2.40
2018-07-13T12:01:12.198Z,1.10
2018-07-13T12:02:12.456Z,1.00
2018-07-13T12:03:12.715Z,2.20
2018-07-13T12:04:12.971Z,0.70
2018-07-13T12:05:13.229Z,0.80
2018-07-13T12:06:13.487Z,0.70
2018-07-13T12:07:13.744Z,3.50
2018-07-13T12:08:14.003Z,1.60
2018-07-13T12:09:14.261Z,1.50
2018-07-13T12:10:14.519Z,0.60
2018-07-13T12:11:14.777Z,2.20
2018-07-13T12:12:15.036Z,0.90
2018-07-13T12:13:15.293Z,3.30
2018-07-13T12:14:15.570Z,1.20
2018-07-13T12:15:15.810Z,1.90
2018-07-13T12:16:16.068Z,1.20
2018-07-13T12:17:16.329Z,1.40
2018-07-13T12:18:16.610Z,0.60
2018-07-13T12:19:16.843Z,0.60
2018-07-13T12:20:17.100Z,0.90
2018-07-13T12:21:17.359Z,1.20
2018-07-13T12:22:17.615Z,0.60
2018-07-13T12:23:17.921Z,1.80
2018-07-13T12:24:18.130Z,0.80
2018-07-13T12:25:18.389Z,0.80
2018-07-13T12:26:18.645Z,1.40
2018-07-13T12:27:18.901Z,1.00
2018-07-13T12:28:19.161Z,2.00
2018-07-13T12:29:19.416Z,0.80
2018-07-13T12:30:19.675Z,3.00
2018-07-13T12:31:19.932Z,0.60
2018-07-13T12:32:20.208Z,1.20
2018-07-13T12:33:20.446Z,1.70
2018-07-13T12:34:20.704Z,1.20
2018-07-13T12:35:20.961Z,1.20
2018-07-13T12:36:21.219Z,1.90
2018-07-13T12:37:21.479Z,1.10
2018-07-13T12:38:21.733Z,1.20
2018-07-13T12:39:21.990Z,1.00
2018-07-13T12:40:22.245Z,1.50
2018-07-13T12:41:22.500Z,1.90
2018-07-13T12:42:22.758Z,1.40
2018-07-13T12:43:23.014Z,1.10
2018-07-13T12:44:23.268Z,1.50
2018-07-13T12:45:23.525Z,1.70
2018-07-13T12:46:23.780Z,1.90
2018-07-13T12:47:24.034Z,1.90
2018-07-13T12:48:24.285Z,1.20
2018-07-13T12:49:24.542Z,1.80
2018-07-13T12:50:24.796Z,2.00
2018-07-13T12:51:25.050Z,2.10
2018-07-13T12:52:25.305Z,1.00
2018-07-13T12:53:25.560Z,2.40
2018-07-13T12:54:25.849Z,0.90
2018-07-13T12:55:26.071Z,1.20
2018-07-13T12:56:26.325Z,1.20
2018-07-13T12:57:26.580Z,1.40
2018-07-13T12:58:26.833Z,2.30
2018-07-13T12:59:27.149Z,1.50
2018-07-13T13:00:27.340Z,1.40
2018-07-13T13:01:27.594Z,0.80
2018-07-13T13:02:27.847Z,1.20
2018-07-13T13:03:28.109Z,2.60
2018-07-13T13:04:28.357Z,0.90
2018-07-13T13:05:28.673Z,1.10
2018-07-13T13:06:28.864Z,2.50
2018-07-13T13:07:29.118Z,0.80
2018-07-13T13:08:29.371Z,1.20
2018-07-13T13:09:29.626Z,1.80
2018-07-13T13:10:29.880Z,1.40